This is the latest recevied weather packets stored in our database for station/object IZ1HMT-3. If no packets are shown the sender has not sent any weather packets the latest 10 day(s).
| Time | Temp. | Humidity | Pressure | Rain* | Wind** | Luminosity | Snow |
|---|---|---|---|---|---|---|---|
| 1788109712 | 30° C | 49% | 1014.9 hPa | - | - | - | - |
| 1788109108 | 30° C | 48% | 1015 hPa | - | - | - | - |
| 1788104878 | 30.56° C | 51% | 1014.9 hPa | - | - | - | - |
| 1788103067 | 30.56° C | 50% | 1015 hPa | - | - | - | - |
| 1788102464 | 30.56° C | 50% | 1015.1 hPa | - | - | - | - |
| 1788101860 | 30.56° C | 51% | 1015.1 hPa | - | - | - | - |
| 1788100653 | 30.56° C | 50% | 1015.2 hPa | - | - | - | - |
| 1788099451 | 31.11° C | 50% | 1015.2 hPa | - | - | - | - |
| 1788098843 | 31.67° C | 49% | 1015.2 hPa | - | - | - | - |
| 1788097635 | 32.78° C | 46% | 1015.4 hPa | - | - | - | - |
| 1788097031 | 32.78° C | 45% | 1015.5 hPa | - | - | - | - |
| 1788096428 | 33.89° C | 43% | 1015.5 hPa | - | - | - | - |
| 1788095825 | 31.11° C | 49% | 1015.6 hPa | - | - | - | - |
| 1788095220 | 31.11° C | 50% | 1015.7 hPa | - | - | - | - |
| 1788094617 | 31.11° C | 48% | 1015.7 hPa | - | - | - | - |
| 1788094013 | 31.67° C | 47% | 1015.7 hPa | - | - | - | - |
| 1788093409 | 32.22° C | 47% | 1015.7 hPa | - | - | - | - |
| 1788092805 | 31.67° C | 47% | 1015.7 hPa | - | - | - | - |
| 1788090992 | 31.11° C | 48% | 1015.8 hPa | - | - | - | - |
| 1788090387 | 31.67° C | 48% | 1015.7 hPa | - | - | - | - |
| 1788089179 | 31.11° C | 48% | 1015.8 hPa | - | - | - | - |
| 1788088575 | 31.11° C | 47% | 1015.8 hPa | - | - | - | - |
| 1788087970 | 31.11° C | 47% | 1015.8 hPa | - | - | - | - |
| 1788087366 | 31.11° C | 47% | 1015.7 hPa | - | - | - | - |
| 1788086756 | 31.67° C | 46% | 1015.9 hPa | - | - | - | - |
* Rain since midnight (hover to see other rain measurements)
** Current wind speed in m/s (hover to see current wind gust speed)